sensor_id;sensor_type;location;lat;lon;timestamp;P1;durP1;ratioP1;P2;durP2;ratioP2
42036;SDS011;30340;52.004;5.908;2023-08-06T00:00:37;8.57;;;6.85;;
42036;SDS011;30340;52.004;5.908;2023-08-06T00:03:03;8.73;;;6.45;;
42036;SDS011;30340;52.004;5.908;2023-08-06T00:05:29;8.20;;;6.20;;
42036;SDS011;30340;52.004;5.908;2023-08-06T00:07:54;7.97;;;6.15;;
42036;SDS011;30340;52.004;5.908;2023-08-06T00:10:20;7.75;;;6.57;;
42036;SDS011;30340;52.004;5.908;2023-08-06T00:12:46;8.57;;;6.43;;
42036;SDS011;30340;52.004;5.908;2023-08-06T00:15:11;5.95;;;4.90;;
42036;SDS011;30340;52.004;5.908;2023-08-06T00:17:37;6.55;;;4.97;;
42036;SDS011;30340;52.004;5.908;2023-08-06T00:20:03;7.40;;;6.45;;
42036;SDS011;30340;52.004;5.908;2023-08-06T00:22:31;7.05;;;5.40;;
42036;SDS011;30340;52.004;5.908;2023-08-06T00:24:57;7.53;;;6.18;;
42036;SDS011;30340;52.004;5.908;2023-08-06T00:27:23;7.35;;;6.28;;
42036;SDS011;30340;52.004;5.908;2023-08-06T00:29:48;8.25;;;6.75;;
42036;SDS011;30340;52.004;5.908;2023-08-06T00:32:14;8.27;;;6.47;;
42036;SDS011;30340;52.004;5.908;2023-08-06T00:34:39;9.20;;;6.00;;
42036;SDS011;30340;52.004;5.908;2023-08-06T00:37:05;7.93;;;6.10;;
42036;SDS011;30340;52.004;5.908;2023-08-06T00:39:31;8.68;;;6.32;;
42036;SDS011;30340;52.004;5.908;2023-08-06T00:41:56;7.00;;;6.25;;
42036;SDS011;30340;52.004;5.908;2023-08-06T00:44:23;8.20;;;6.20;;
42036;SDS011;30340;52.004;5.908;2023-08-06T00:46:49;7.47;;;6.68;;
42036;SDS011;30340;52.004;5.908;2023-08-06T00:49:15;6.20;;;5.50;;
42036;SDS011;30340;52.004;5.908;2023-08-06T00:51:40;6.95;;;5.70;;
42036;SDS011;30340;52.004;5.908;2023-08-06T00:54:07;8.00;;;6.32;;
42036;SDS011;30340;52.004;5.908;2023-08-06T00:56:33;7.85;;;5.57;;
42036;SDS011;30340;52.004;5.908;2023-08-06T00:59:00;7.00;;;5.75;;
42036;SDS011;30340;52.004;5.908;2023-08-06T01:01:26;7.03;;;6.32;;
42036;SDS011;30340;52.004;5.908;2023-08-06T01:03:52;7.25;;;6.47;;
42036;SDS011;30340;52.004;5.908;2023-08-06T01:06:19;7.65;;;6.85;;
42036;SDS011;30340;52.004;5.908;2023-08-06T01:08:58;9.70;;;7.10;;
42036;SDS011;30340;52.004;5.908;2023-08-06T01:16:57;9.05;;;6.00;;
42036;SDS011;30340;52.004;5.908;2023-08-06T01:19:23;6.68;;;5.00;;
42036;SDS011;30340;52.004;5.908;2023-08-06T01:21:50;6.18;;;5.47;;
42036;SDS011;30340;52.004;5.908;2023-08-06T01:24:15;8.02;;;6.75;;
42036;SDS011;30340;52.004;5.908;2023-08-06T01:29:14;6.30;;;4.88;;
42036;SDS011;30340;52.004;5.908;2023-08-06T01:31:44;5.47;;;4.88;;
42036;SDS011;30340;52.004;5.908;2023-08-06T01:34:16;4.40;;;3.97;;
42036;SDS011;30340;52.004;5.908;2023-08-06T01:36:45;5.53;;;4.97;;
42036;SDS011;30340;52.004;5.908;2023-08-06T01:39:11;5.53;;;4.50;;
42036;SDS011;30340;52.004;5.908;2023-08-06T01:41:37;6.43;;;5.40;;
42036;SDS011;30340;52.004;5.908;2023-08-06T01:44:02;6.03;;;5.22;;
42036;SDS011;30340;52.004;5.908;2023-08-06T01:46:28;5.45;;;4.82;;
42036;SDS011;30340;52.004;5.908;2023-08-06T01:48:54;5.35;;;4.68;;
42036;SDS011;30340;52.004;5.908;2023-08-06T01:51:19;6.10;;;5.47;;
42036;SDS011;30340;52.004;5.908;2023-08-06T01:53:45;6.32;;;5.40;;
42036;SDS011;30340;52.004;5.908;2023-08-06T01:56:10;7.88;;;6.82;;
42036;SDS011;30340;52.004;5.908;2023-08-06T01:58:36;7.15;;;5.97;;
42036;SDS011;30340;52.004;5.908;2023-08-06T02:01:02;9.43;;;8.30;;
42036;SDS011;30340;52.004;5.908;2023-08-06T02:03:27;10.50;;;9.23;;
42036;SDS011;30340;52.004;5.908;2023-08-06T02:05:53;9.75;;;8.75;;
42036;SDS011;30340;52.004;5.908;2023-08-06T02:08:19;10.77;;;9.00;;
42036;SDS011;30340;52.004;5.908;2023-08-06T02:10:44;8.85;;;7.95;;
42036;SDS011;30340;52.004;5.908;2023-08-06T02:13:10;11.20;;;9.88;;
42036;SDS011;30340;52.004;5.908;2023-08-06T02:15:36;10.50;;;9.40;;
42036;SDS011;30340;52.004;5.908;2023-08-06T02:18:07;12.10;;;10.75;;
42036;SDS011;30340;52.004;5.908;2023-08-06T02:20:33;12.02;;;9.85;;
42036;SDS011;30340;52.004;5.908;2023-08-06T02:22:58;10.25;;;8.63;;
42036;SDS011;30340;52.004;5.908;2023-08-06T02:25:24;12.60;;;11.27;;
42036;SDS011;30340;52.004;5.908;2023-08-06T02:27:49;10.98;;;9.50;;
42036;SDS011;30340;52.004;5.908;2023-08-06T02:30:15;12.32;;;9.93;;
42036;SDS011;30340;52.004;5.908;2023-08-06T02:32:41;10.15;;;9.07;;
42036;SDS011;30340;52.004;5.908;2023-08-06T02:35:06;10.77;;;9.68;;
42036;SDS011;30340;52.004;5.908;2023-08-06T02:37:35;9.13;;;7.82;;
42036;SDS011;30340;52.004;5.908;2023-08-06T02:40:00;10.35;;;8.27;;
42036;SDS011;30340;52.004;5.908;2023-08-06T02:42:27;8.40;;;7.30;;
42036;SDS011;30340;52.004;5.908;2023-08-06T02:44:52;9.75;;;7.90;;
42036;SDS011;30340;52.004;5.908;2023-08-06T02:47:21;7.88;;;7.00;;
42036;SDS011;30340;52.004;5.908;2023-08-06T02:49:47;8.25;;;7.05;;
42036;SDS011;30340;52.004;5.908;2023-08-06T02:52:12;7.80;;;5.95;;
42036;SDS011;30340;52.004;5.908;2023-08-06T02:54:38;11.95;;;7.93;;
42036;SDS011;30340;52.004;5.908;2023-08-06T02:57:04;16.73;;;9.25;;
42036;SDS011;30340;52.004;5.908;2023-08-06T02:59:30;10.45;;;7.28;;
42036;SDS011;30340;52.004;5.908;2023-08-06T03:01:56;7.38;;;6.00;;
42036;SDS011;30340;52.004;5.908;2023-08-06T03:04:21;6.93;;;5.65;;
42036;SDS011;30340;52.004;5.908;2023-08-06T03:06:49;6.35;;;5.10;;
42036;SDS011;30340;52.004;5.908;2023-08-06T03:09:15;4.85;;;4.20;;
42036;SDS011;30340;52.004;5.908;2023-08-06T03:11:41;5.93;;;4.70;;
42036;SDS011;30340;52.004;5.908;2023-08-06T03:14:06;5.13;;;4.05;;
42036;SDS011;30340;52.004;5.908;2023-08-06T03:16:32;6.00;;;4.28;;
42036;SDS011;30340;52.004;5.908;2023-08-06T03:18:58;5.78;;;4.18;;
42036;SDS011;30340;52.004;5.908;2023-08-06T03:21:23;4.47;;;3.85;;
42036;SDS011;30340;52.004;5.908;2023-08-06T03:23:49;8.25;;;5.93;;
42036;SDS011;30340;52.004;5.908;2023-08-06T03:26:14;6.40;;;4.45;;
42036;SDS011;30340;52.004;5.908;2023-08-06T03:28:40;7.45;;;4.50;;
42036;SDS011;30340;52.004;5.908;2023-08-06T03:31:05;5.47;;;4.88;;
42036;SDS011;30340;52.004;5.908;2023-08-06T03:33:31;6.97;;;5.43;;
42036;SDS011;30340;52.004;5.908;2023-08-06T03:35:57;5.22;;;4.40;;
42036;SDS011;30340;52.004;5.908;2023-08-06T03:38:22;5.22;;;4.10;;
42036;SDS011;30340;52.004;5.908;2023-08-06T03:40:48;5.22;;;4.65;;
42036;SDS011;30340;52.004;5.908;2023-08-06T03:43:14;6.22;;;4.97;;
42036;SDS011;30340;52.004;5.908;2023-08-06T03:45:40;6.13;;;4.90;;
42036;SDS011;30340;52.004;5.908;2023-08-06T03:48:06;6.85;;;5.30;;
42036;SDS011;30340;52.004;5.908;2023-08-06T03:50:32;6.30;;;4.72;;
42036;SDS011;30340;52.004;5.908;2023-08-06T03:52:58;5.40;;;4.57;;
42036;SDS011;30340;52.004;5.908;2023-08-06T03:55:23;6.18;;;5.10;;
42036;SDS011;30340;52.004;5.908;2023-08-06T03:57:49;5.18;;;4.28;;
42036;SDS011;30340;52.004;5.908;2023-08-06T04:00:14;5.68;;;4.25;;
42036;SDS011;30340;52.004;5.908;2023-08-06T04:02:40;5.35;;;4.80;;
42036;SDS011;30340;52.004;5.908;2023-08-06T04:05:06;6.78;;;5.18;;
42036;SDS011;30340;52.004;5.908;2023-08-06T04:07:31;5.55;;;4.60;;
42036;SDS011;30340;52.004;5.908;2023-08-06T04:09:58;6.90;;;4.85;;
42036;SDS011;30340;52.004;5.908;2023-08-06T04:12:25;6.40;;;5.18;;
42036;SDS011;30340;52.004;5.908;2023-08-06T04:14:51;5.70;;;4.93;;
42036;SDS011;30340;52.004;5.908;2023-08-06T04:17:18;7.47;;;5.50;;
42036;SDS011;30340;52.004;5.908;2023-08-06T04:19:47;7.22;;;5.85;;
42036;SDS011;30340;52.004;5.908;2023-08-06T04:22:15;8.38;;;6.97;;
42036;SDS011;30340;52.004;5.908;2023-08-06T04:24:41;8.02;;;5.82;;
42036;SDS011;30340;52.004;5.908;2023-08-06T04:27:08;8.48;;;6.40;;
42036;SDS011;30340;52.004;5.908;2023-08-06T04:29:34;8.55;;;6.75;;
42036;SDS011;30340;52.004;5.908;2023-08-06T04:31:59;7.93;;;6.65;;
42036;SDS011;30340;52.004;5.908;2023-08-06T04:34:25;7.65;;;6.30;;
42036;SDS011;30340;52.004;5.908;2023-08-06T04:36:50;7.70;;;6.90;;
42036;SDS011;30340;52.004;5.908;2023-08-06T04:39:16;7.65;;;6.18;;
42036;SDS011;30340;52.004;5.908;2023-08-06T04:41:42;8.15;;;6.45;;
42036;SDS011;30340;52.004;5.908;2023-08-06T04:44:07;8.40;;;7.05;;
42036;SDS011;30340;52.004;5.908;2023-08-06T04:46:33;10.30;;;7.45;;
42036;SDS011;30340;52.004;5.908;2023-08-06T04:48:58;9.25;;;6.93;;
42036;SDS011;30340;52.004;5.908;2023-08-06T04:51:24;7.93;;;6.90;;
42036;SDS011;30340;52.004;5.908;2023-08-06T04:53:49;8.07;;;6.88;;
42036;SDS011;30340;52.004;5.908;2023-08-06T04:56:15;9.90;;;7.88;;
42036;SDS011;30340;52.004;5.908;2023-08-06T04:58:40;7.85;;;5.88;;
42036;SDS011;30340;52.004;5.908;2023-08-06T05:01:06;8.13;;;6.63;;
42036;SDS011;30340;52.004;5.908;2023-08-06T05:03:32;8.85;;;6.95;;
42036;SDS011;30340;52.004;5.908;2023-08-06T05:05:57;6.85;;;6.03;;
42036;SDS011;30340;52.004;5.908;2023-08-06T05:08:23;7.43;;;5.63;;
42036;SDS011;30340;52.004;5.908;2023-08-06T05:10:48;6.93;;;5.65;;
42036;SDS011;30340;52.004;5.908;2023-08-06T05:13:14;9.15;;;7.57;;
42036;SDS011;30340;52.004;5.908;2023-08-06T05:15:39;7.35;;;5.90;;
42036;SDS011;30340;52.004;5.908;2023-08-06T05:18:07;7.88;;;5.65;;
42036;SDS011;30340;52.004;5.908;2023-08-06T05:20:36;7.70;;;6.50;;
42036;SDS011;30340;52.004;5.908;2023-08-06T05:23:03;7.18;;;5.75;;
42036;SDS011;30340;52.004;5.908;2023-08-06T05:25:29;7.80;;;6.20;;
42036;SDS011;30340;52.004;5.908;2023-08-06T05:27:55;8.70;;;6.70;;
42036;SDS011;30340;52.004;5.908;2023-08-06T05:30:20;7.68;;;6.63;;
42036;SDS011;30340;52.004;5.908;2023-08-06T05:32:46;9.25;;;7.38;;
42036;SDS011;30340;52.004;5.908;2023-08-06T05:35:12;10.00;;;7.38;;
42036;SDS011;30340;52.004;5.908;2023-08-06T05:37:37;8.73;;;7.60;;
42036;SDS011;30340;52.004;5.908;2023-08-06T05:40:03;8.80;;;7.30;;
42036;SDS011;30340;52.004;5.908;2023-08-06T05:42:29;8.32;;;7.07;;
42036;SDS011;30340;52.004;5.908;2023-08-06T05:44:55;9.93;;;7.70;;
42036;SDS011;30340;52.004;5.908;2023-08-06T05:47:20;9.07;;;8.07;;
42036;SDS011;30340;52.004;5.908;2023-08-06T05:49:46;11.18;;;8.93;;
42036;SDS011;30340;52.004;5.908;2023-08-06T05:52:11;11.00;;;9.18;;
42036;SDS011;30340;52.004;5.908;2023-08-06T05:54:37;11.57;;;9.38;;
42036;SDS011;30340;52.004;5.908;2023-08-06T05:57:02;11.00;;;8.63;;
42036;SDS011;30340;52.004;5.908;2023-08-06T05:59:28;12.10;;;9.88;;
42036;SDS011;30340;52.004;5.908;2023-08-06T06:01:54;12.18;;;10.15;;
42036;SDS011;30340;52.004;5.908;2023-08-06T06:04:20;12.07;;;9.70;;
42036;SDS011;30340;52.004;5.908;2023-08-06T06:06:45;13.82;;;10.60;;
42036;SDS011;30340;52.004;5.908;2023-08-06T06:09:11;10.73;;;9.20;;
42036;SDS011;30340;52.004;5.908;2023-08-06T06:11:36;13.98;;;10.77;;
42036;SDS011;30340;52.004;5.908;2023-08-06T06:14:02;12.07;;;9.43;;
42036;SDS011;30340;52.004;5.908;2023-08-06T06:16:28;11.82;;;9.88;;
42036;SDS011;30340;52.004;5.908;2023-08-06T06:18:53;10.45;;;8.90;;
42036;SDS011;30340;52.004;5.908;2023-08-06T06:21:19;10.40;;;8.70;;
42036;SDS011;30340;52.004;5.908;2023-08-06T06:23:45;12.65;;;9.82;;
42036;SDS011;30340;52.004;5.908;2023-08-06T06:26:11;11.73;;;9.63;;
42036;SDS011;30340;52.004;5.908;2023-08-06T06:28:37;13.32;;;9.48;;
42036;SDS011;30340;52.004;5.908;2023-08-06T06:31:03;11.27;;;8.90;;
42036;SDS011;30340;52.004;5.908;2023-08-06T06:33:29;11.02;;;8.77;;
42036;SDS011;30340;52.004;5.908;2023-08-06T06:35:55;11.15;;;9.32;;
42036;SDS011;30340;52.004;5.908;2023-08-06T06:38:20;12.07;;;9.55;;
42036;SDS011;30340;52.004;5.908;2023-08-06T06:40:54;11.80;;;9.25;;
42036;SDS011;30340;52.004;5.908;2023-08-06T06:43:20;10.30;;;8.40;;
42036;SDS011;30340;52.004;5.908;2023-08-06T06:45:46;11.10;;;9.02;;
42036;SDS011;30340;52.004;5.908;2023-08-06T06:48:11;11.18;;;9.40;;
42036;SDS011;30340;52.004;5.908;2023-08-06T06:50:37;11.23;;;9.40;;
42036;SDS011;30340;52.004;5.908;2023-08-06T06:53:04;12.60;;;10.80;;
42036;SDS011;30340;52.004;5.908;2023-08-06T06:55:29;11.90;;;9.25;;
42036;SDS011;30340;52.004;5.908;2023-08-06T06:57:55;12.50;;;10.32;;
42036;SDS011;30340;52.004;5.908;2023-08-06T07:00:21;10.15;;;8.98;;
42036;SDS011;30340;52.004;5.908;2023-08-06T07:02:46;11.45;;;9.63;;
42036;SDS011;30340;52.004;5.908;2023-08-06T07:05:12;12.52;;;11.05;;
42036;SDS011;30340;52.004;5.908;2023-08-06T07:07:37;10.43;;;8.65;;
42036;SDS011;30340;52.004;5.908;2023-08-06T07:10:03;11.82;;;8.55;;
42036;SDS011;30340;52.004;5.908;2023-08-06T07:12:29;10.80;;;9.10;;
42036;SDS011;30340;52.004;5.908;2023-08-06T07:14:54;9.88;;;8.88;;
42036;SDS011;30340;52.004;5.908;2023-08-06T07:17:20;10.35;;;9.25;;
42036;SDS011;30340;52.004;5.908;2023-08-06T07:19:45;11.75;;;8.80;;
42036;SDS011;30340;52.004;5.908;2023-08-06T07:22:11;9.27;;;7.68;;
42036;SDS011;30340;52.004;5.908;2023-08-06T07:24:37;8.93;;;7.75;;
42036;SDS011;30340;52.004;5.908;2023-08-06T07:27:02;9.30;;;8.30;;
42036;SDS011;30340;52.004;5.908;2023-08-06T07:29:28;10.05;;;8.77;;
42036;SDS011;30340;52.004;5.908;2023-08-06T07:31:53;9.77;;;8.75;;
42036;SDS011;30340;52.004;5.908;2023-08-06T07:34:20;10.07;;;8.85;;
42036;SDS011;30340;52.004;5.908;2023-08-06T07:36:46;10.13;;;8.48;;
42036;SDS011;30340;52.004;5.908;2023-08-06T07:39:12;8.40;;;7.40;;
42036;SDS011;30340;52.004;5.908;2023-08-06T07:41:38;9.57;;;7.90;;
42036;SDS011;30340;52.004;5.908;2023-08-06T07:44:04;8.80;;;7.90;;
42036;SDS011;30340;52.004;5.908;2023-08-06T07:46:29;10.25;;;7.88;;
42036;SDS011;30340;52.004;5.908;2023-08-06T07:48:55;9.55;;;8.20;;
42036;SDS011;30340;52.004;5.908;2023-08-06T07:51:20;9.07;;;7.85;;
42036;SDS011;30340;52.004;5.908;2023-08-06T07:53:46;8.18;;;7.28;;
42036;SDS011;30340;52.004;5.908;2023-08-06T07:56:12;9.85;;;8.80;;
42036;SDS011;30340;52.004;5.908;2023-08-06T07:58:37;9.63;;;8.15;;
42036;SDS011;30340;52.004;5.908;2023-08-06T08:01:03;8.90;;;7.85;;
42036;SDS011;30340;52.004;5.908;2023-08-06T08:03:28;8.70;;;7.70;;
42036;SDS011;30340;52.004;5.908;2023-08-06T08:05:55;9.75;;;7.95;;
42036;SDS011;30340;52.004;5.908;2023-08-06T08:08:23;8.98;;;7.30;;
42036;SDS011;30340;52.004;5.908;2023-08-06T08:10:49;8.45;;;6.80;;
42036;SDS011;30340;52.004;5.908;2023-08-06T08:13:15;11.05;;;8.23;;
42036;SDS011;30340;52.004;5.908;2023-08-06T08:15:40;8.32;;;6.85;;
42036;SDS011;30340;52.004;5.908;2023-08-06T08:18:06;8.38;;;7.50;;
42036;SDS011;30340;52.004;5.908;2023-08-06T08:20:32;9.30;;;6.72;;
42036;SDS011;30340;52.004;5.908;2023-08-06T08:23:00;8.63;;;7.53;;
42036;SDS011;30340;52.004;5.908;2023-08-06T08:25:26;8.40;;;7.20;;
42036;SDS011;30340;52.004;5.908;2023-08-06T08:27:52;9.00;;;8.10;;
42036;SDS011;30340;52.004;5.908;2023-08-06T08:30:19;8.15;;;7.22;;
42036;SDS011;30340;52.004;5.908;2023-08-06T08:32:44;9.05;;;7.25;;
42036;SDS011;30340;52.004;5.908;2023-08-06T08:35:10;8.90;;;7.07;;
42036;SDS011;30340;52.004;5.908;2023-08-06T08:37:38;8.68;;;7.10;;
42036;SDS011;30340;52.004;5.908;2023-08-06T08:40:04;8.68;;;7.72;;
42036;SDS011;30340;52.004;5.908;2023-08-06T08:42:33;6.50;;;5.85;;
42036;SDS011;30340;52.004;5.908;2023-08-06T08:45:00;6.95;;;6.25;;
42036;SDS011;30340;52.004;5.908;2023-08-06T08:47:27;7.68;;;6.43;;
42036;SDS011;30340;52.004;5.908;2023-08-06T08:49:53;8.93;;;7.07;;
42036;SDS011;30340;52.004;5.908;2023-08-06T08:52:22;7.20;;;6.38;;
42036;SDS011;30340;52.004;5.908;2023-08-06T08:54:49;6.80;;;6.10;;
42036;SDS011;30340;52.004;5.908;2023-08-06T08:57:17;8.35;;;6.72;;
42036;SDS011;30340;52.004;5.908;2023-08-06T08:59:42;8.05;;;6.63;;
42036;SDS011;30340;52.004;5.908;2023-08-06T09:02:08;6.68;;;5.88;;
42036;SDS011;30340;52.004;5.908;2023-08-06T09:04:40;7.22;;;5.82;;
42036;SDS011;30340;52.004;5.908;2023-08-06T09:07:06;7.57;;;5.95;;
42036;SDS011;30340;52.004;5.908;2023-08-06T09:09:35;6.55;;;5.88;;
42036;SDS011;30340;52.004;5.908;2023-08-06T09:12:05;7.10;;;5.47;;
42036;SDS011;30340;52.004;5.908;2023-08-06T09:14:36;5.22;;;4.63;;
42036;SDS011;30340;52.004;5.908;2023-08-06T09:17:01;6.43;;;5.70;;
42036;SDS011;30340;52.004;5.908;2023-08-06T09:19:27;6.40;;;5.47;;
42036;SDS011;30340;52.004;5.908;2023-08-06T09:21:53;6.50;;;5.57;;
42036;SDS011;30340;52.004;5.908;2023-08-06T09:24:20;8.10;;;5.53;;
42036;SDS011;30340;52.004;5.908;2023-08-06T09:26:47;6.47;;;5.68;;
42036;SDS011;30340;52.004;5.908;2023-08-06T09:29:13;5.63;;;5.07;;
42036;SDS011;30340;52.004;5.908;2023-08-06T09:31:43;5.70;;;5.10;;
42036;SDS011;30340;52.004;5.908;2023-08-06T09:34:18;6.70;;;5.82;;
42036;SDS011;30340;52.004;5.908;2023-08-06T09:36:48;5.70;;;4.97;;
42036;SDS011;30340;52.004;5.908;2023-08-06T09:39:19;6.93;;;5.20;;
42036;SDS011;30340;52.004;5.908;2023-08-06T09:41:46;6.35;;;5.68;;
42036;SDS011;30340;52.004;5.908;2023-08-06T09:44:18;5.57;;;5.03;;
42036;SDS011;30340;52.004;5.908;2023-08-06T09:46:48;6.32;;;5.22;;
42036;SDS011;30340;52.004;5.908;2023-08-06T09:49:15;6.57;;;5.55;;
42036;SDS011;30340;52.004;5.908;2023-08-06T09:51:41;5.55;;;5.00;;
42036;SDS011;30340;52.004;5.908;2023-08-06T09:54:07;6.55;;;5.95;;
42036;SDS011;30340;52.004;5.908;2023-08-06T09:56:37;6.22;;;5.63;;
42036;SDS011;30340;52.004;5.908;2023-08-06T09:59:06;7.43;;;6.43;;
42036;SDS011;30340;52.004;5.908;2023-08-06T10:01:32;6.78;;;6.07;;
42036;SDS011;30340;52.004;5.908;2023-08-06T10:04:01;7.18;;;6.20;;
42036;SDS011;30340;52.004;5.908;2023-08-06T10:06:29;6.55;;;5.90;;
42036;SDS011;30340;52.004;5.908;2023-08-06T10:08:55;7.78;;;6.40;;
42036;SDS011;30340;52.004;5.908;2023-08-06T10:11:24;7.50;;;6.70;;
42036;SDS011;30340;52.004;5.908;2023-08-06T10:13:53;9.02;;;8.13;;
42036;SDS011;30340;52.004;5.908;2023-08-06T10:16:23;8.75;;;7.70;;
42036;SDS011;30340;52.004;5.908;2023-08-06T10:18:50;10.35;;;8.38;;
42036;SDS011;30340;52.004;5.908;2023-08-06T10:21:16;8.73;;;7.20;;
42036;SDS011;30340;52.004;5.908;2023-08-06T10:23:42;8.18;;;6.18;;
42036;SDS011;30340;52.004;5.908;2023-08-06T10:26:08;7.53;;;6.72;;
42036;SDS011;30340;52.004;5.908;2023-08-06T10:28:34;8.25;;;6.13;;
42036;SDS011;30340;52.004;5.908;2023-08-06T10:31:03;8.80;;;7.90;;
42036;SDS011;30340;52.004;5.908;2023-08-06T10:33:43;9.98;;;8.85;;
42036;SDS011;30340;52.004;5.908;2023-08-06T10:36:10;11.95;;;10.68;;
42036;SDS011;30340;52.004;5.908;2023-08-06T10:38:43;5.90;;;5.03;;
42036;SDS011;30340;52.004;5.908;2023-08-06T10:41:15;4.40;;;3.55;;
42036;SDS011;30340;52.004;5.908;2023-08-06T10:44:07;2.25;;;2.00;;
42036;SDS011;30340;52.004;5.908;2023-08-06T10:46:34;2.35;;;1.50;;
42036;SDS011;30340;52.004;5.908;2023-08-06T10:49:00;1.48;;;1.38;;
42036;SDS011;30340;52.004;5.908;2023-08-06T10:51:27;1.30;;;1.20;;
42036;SDS011;30340;52.004;5.908;2023-08-06T10:53:52;3.53;;;1.10;;
42036;SDS011;30340;52.004;5.908;2023-08-06T10:56:22;1.20;;;0.98;;
42036;SDS011;30340;52.004;5.908;2023-08-06T10:58:53;1.20;;;1.10;;
42036;SDS011;30340;52.004;5.908;2023-08-06T11:01:21;0.90;;;0.90;;
42036;SDS011;30340;52.004;5.908;2023-08-06T11:03:47;1.55;;;1.08;;
42036;SDS011;30340;52.004;5.908;2023-08-06T11:06:18;1.67;;;1.00;;
42036;SDS011;30340;52.004;5.908;2023-08-06T11:08:51;1.02;;;0.95;;
42036;SDS011;30340;52.004;5.908;2023-08-06T11:11:18;1.20;;;1.05;;
42036;SDS011;30340;52.004;5.908;2023-08-06T11:13:45;1.40;;;1.30;;
42036;SDS011;30340;52.004;5.908;2023-08-06T11:16:13;1.67;;;1.25;;
42036;SDS011;30340;52.004;5.908;2023-08-06T11:18:39;1.10;;;1.00;;
42036;SDS011;30340;52.004;5.908;2023-08-06T11:21:06;1.58;;;1.30;;
42036;SDS011;30340;52.004;5.908;2023-08-06T11:23:32;1.27;;;1.17;;
42036;SDS011;30340;52.004;5.908;2023-08-06T11:26:00;6.50;;;4.50;;
42036;SDS011;30340;52.004;5.908;2023-08-06T11:28:26;2.05;;;1.80;;
42036;SDS011;30340;52.004;5.908;2023-08-06T11:30:52;2.10;;;1.60;;
42036;SDS011;30340;52.004;5.908;2023-08-06T11:33:24;1.58;;;1.48;;
42036;SDS011;30340;52.004;5.908;2023-08-06T11:35:50;1.50;;;1.40;;
42036;SDS011;30340;52.004;5.908;2023-08-06T11:38:17;1.70;;;1.50;;
42036;SDS011;30340;52.004;5.908;2023-08-06T11:40:46;1.60;;;1.50;;
42036;SDS011;30340;52.004;5.908;2023-08-06T11:43:12;2.85;;;1.88;;
42036;SDS011;30340;52.004;5.908;2023-08-06T11:45:39;1.58;;;1.45;;
42036;SDS011;30340;52.004;5.908;2023-08-06T11:48:05;1.80;;;1.50;;
42036;SDS011;30340;52.004;5.908;2023-08-06T11:50:35;1.67;;;1.52;;
42036;SDS011;30340;52.004;5.908;2023-08-06T11:53:05;2.10;;;1.52;;
42036;SDS011;30340;52.004;5.908;2023-08-06T11:55:31;1.75;;;1.50;;
42036;SDS011;30340;52.004;5.908;2023-08-06T11:57:58;2.15;;;1.63;;
42036;SDS011;30340;52.004;5.908;2023-08-06T12:00:28;2.00;;;1.60;;
42036;SDS011;30340;52.004;5.908;2023-08-06T12:02:54;2.20;;;1.60;;
42036;SDS011;30340;52.004;5.908;2023-08-06T12:05:22;2.47;;;1.55;;
42036;SDS011;30340;52.004;5.908;2023-08-06T12:07:49;2.83;;;2.00;;
42036;SDS011;30340;52.004;5.908;2023-08-06T12:10:24;2.58;;;1.70;;
42036;SDS011;30340;52.004;5.908;2023-08-06T12:12:51;1.95;;;1.77;;
42036;SDS011;30340;52.004;5.908;2023-08-06T12:15:17;2.65;;;1.90;;
42036;SDS011;30340;52.004;5.908;2023-08-06T12:17:43;3.50;;;1.80;;
42036;SDS011;30340;52.004;5.908;2023-08-06T12:20:09;3.13;;;2.10;;
42036;SDS011;30340;52.004;5.908;2023-08-06T12:22:35;4.50;;;2.65;;
42036;SDS011;30340;52.004;5.908;2023-08-06T12:25:03;3.00;;;1.95;;
42036;SDS011;30340;52.004;5.908;2023-08-06T12:27:36;3.67;;;1.95;;
42036;SDS011;30340;52.004;5.908;2023-08-06T12:30:02;2.85;;;2.00;;
42036;SDS011;30340;52.004;5.908;2023-08-06T12:32:29;2.20;;;1.77;;
42036;SDS011;30340;52.004;5.908;2023-08-06T12:34:55;2.25;;;1.60;;
42036;SDS011;30340;52.004;5.908;2023-08-06T12:37:20;1.55;;;1.30;;
42036;SDS011;30340;52.004;5.908;2023-08-06T12:39:46;2.13;;;1.48;;
42036;SDS011;30340;52.004;5.908;2023-08-06T12:42:12;2.28;;;1.80;;
42036;SDS011;30340;52.004;5.908;2023-08-06T12:44:38;2.20;;;1.80;;
42036;SDS011;30340;52.004;5.908;2023-08-06T12:47:03;2.53;;;1.98;;
42036;SDS011;30340;52.004;5.908;2023-08-06T12:49:29;3.13;;;2.10;;
42036;SDS011;30340;52.004;5.908;2023-08-06T12:51:56;2.75;;;1.92;;
42036;SDS011;30340;52.004;5.908;2023-08-06T12:54:22;2.50;;;2.10;;
42036;SDS011;30340;52.004;5.908;2023-08-06T12:56:48;2.42;;;2.10;;
42036;SDS011;30340;52.004;5.908;2023-08-06T12:59:14;3.45;;;2.63;;
42036;SDS011;30340;52.004;5.908;2023-08-06T13:01:41;4.28;;;2.35;;
42036;SDS011;30340;52.004;5.908;2023-08-06T13:04:07;3.78;;;2.50;;
42036;SDS011;30340;52.004;5.908;2023-08-06T13:06:33;2.47;;;1.90;;
42036;SDS011;30340;52.004;5.908;2023-08-06T13:09:02;2.83;;;2.15;;
42036;SDS011;30340;52.004;5.908;2023-08-06T13:11:29;3.15;;;1.83;;
42036;SDS011;30340;52.004;5.908;2023-08-06T13:13:56;2.15;;;1.70;;
42036;SDS011;30340;52.004;5.908;2023-08-06T13:16:36;3.83;;;2.58;;
42036;SDS011;30340;52.004;5.908;2023-08-06T13:19:03;3.85;;;2.78;;
42036;SDS011;30340;52.004;5.908;2023-08-06T13:21:33;3.58;;;2.42;;
42036;SDS011;30340;52.004;5.908;2023-08-06T13:24:01;2.03;;;1.83;;
42036;SDS011;30340;52.004;5.908;2023-08-06T13:26:28;3.60;;;2.17;;
42036;SDS011;30340;52.004;5.908;2023-08-06T13:28:54;3.22;;;2.20;;
42036;SDS011;30340;52.004;5.908;2023-08-06T13:31:21;2.85;;;1.67;;
42036;SDS011;30340;52.004;5.908;2023-08-06T13:33:46;2.80;;;1.60;;
42036;SDS011;30340;52.004;5.908;2023-08-06T13:36:13;2.00;;;1.80;;
42036;SDS011;30340;52.004;5.908;2023-08-06T13:38:38;1.58;;;1.42;;
42036;SDS011;30340;52.004;5.908;2023-08-06T13:41:04;1.75;;;1.65;;
42036;SDS011;30340;52.004;5.908;2023-08-06T13:43:30;1.83;;;1.63;;
42036;SDS011;30340;52.004;5.908;2023-08-06T13:45:56;2.10;;;1.90;;
42036;SDS011;30340;52.004;5.908;2023-08-06T13:48:22;2.67;;;2.20;;
42036;SDS011;30340;52.004;5.908;2023-08-06T13:50:48;2.08;;;1.73;;
42036;SDS011;30340;52.004;5.908;2023-08-06T13:53:13;4.63;;;2.20;;
42036;SDS011;30340;52.004;5.908;2023-08-06T13:55:39;3.58;;;2.10;;
42036;SDS011;30340;52.004;5.908;2023-08-06T13:58:04;3.13;;;2.20;;
42036;SDS011;30340;52.004;5.908;2023-08-06T14:00:30;2.92;;;2.13;;
42036;SDS011;30340;52.004;5.908;2023-08-06T14:02:56;3.45;;;2.13;;
42036;SDS011;30340;52.004;5.908;2023-08-06T14:05:21;3.17;;;2.10;;
42036;SDS011;30340;52.004;5.908;2023-08-06T14:07:47;2.03;;;1.80;;
42036;SDS011;30340;52.004;5.908;2023-08-06T14:10:12;2.30;;;1.95;;
42036;SDS011;30340;52.004;5.908;2023-08-06T14:12:38;2.97;;;2.15;;
42036;SDS011;30340;52.004;5.908;2023-08-06T14:15:04;3.05;;;2.00;;
42036;SDS011;30340;52.004;5.908;2023-08-06T14:17:30;3.88;;;2.40;;
42036;SDS011;30340;52.004;5.908;2023-08-06T14:19:55;4.68;;;2.72;;
42036;SDS011;30340;52.004;5.908;2023-08-06T14:22:21;4.90;;;3.20;;
42036;SDS011;30340;52.004;5.908;2023-08-06T14:24:47;5.78;;;2.90;;
42036;SDS011;30340;52.004;5.908;2023-08-06T14:27:13;3.85;;;2.20;;
42036;SDS011;30340;52.004;5.908;2023-08-06T14:29:38;2.85;;;2.22;;
42036;SDS011;30340;52.004;5.908;2023-08-06T14:32:04;2.63;;;2.10;;
42036;SDS011;30340;52.004;5.908;2023-08-06T14:34:30;2.67;;;2.00;;
42036;SDS011;30340;52.004;5.908;2023-08-06T14:36:55;2.95;;;2.50;;
42036;SDS011;30340;52.004;5.908;2023-08-06T14:39:21;3.28;;;2.40;;
42036;SDS011;30340;52.004;5.908;2023-08-06T14:41:47;3.40;;;2.65;;
42036;SDS011;30340;52.004;5.908;2023-08-06T14:44:13;3.53;;;2.38;;
42036;SDS011;30340;52.004;5.908;2023-08-06T14:46:38;3.88;;;2.42;;
42036;SDS011;30340;52.004;5.908;2023-08-06T14:49:04;3.45;;;2.53;;